sensor_id;sensor_type;location;lat;lon;timestamp;pressure;altitude;pressure_sealevel;temperature;humidity
35878;BME280;21982;49.804;24.072;2023-01-29T00:01:06;97536.06;;;-0.54;68.35
35878;BME280;21982;49.804;24.072;2023-01-29T00:03:32;97770.03;;;0.89;69.07
35878;BME280;21982;49.804;24.072;2023-01-29T00:05:58;97576.41;;;-0.48;68.51
35878;BME280;21982;49.804;24.072;2023-01-29T00:08:24;97776.09;;;0.90;69.04
35878;BME280;21982;49.804;24.072;2023-01-29T00:10:50;97779.19;;;0.95;68.48
35878;BME280;21982;49.804;24.072;2023-01-29T00:13:15;97732.59;;;0.68;68.57
35878;BME280;21982;49.804;24.072;2023-01-29T00:15:41;97592.22;;;-0.16;68.42
35878;BME280;21982;49.804;24.072;2023-01-29T00:18:06;97711.00;;;0.55;68.59
35878;BME280;21982;49.804;24.072;2023-01-29T00:20:32;97780.38;;;1.02;67.94
35878;BME280;21982;49.804;24.072;2023-01-29T00:22:58;97711.59;;;0.58;68.48
35878;BME280;21982;49.804;24.072;2023-01-29T00:25:23;97610.84;;;0.02;68.29
35878;BME280;21982;49.804;24.072;2023-01-29T00:27:49;97680.75;;;0.41;67.72
35878;BME280;21982;49.804;24.072;2023-01-29T00:30:14;97782.03;;;1.03;68.44
35878;BME280;21982;49.804;24.072;2023-01-29T00:32:43;97791.97;;;1.09;67.80
35878;BME280;21982;49.804;24.072;2023-01-29T00:35:09;97722.72;;;0.60;68.33
35878;BME280;21982;49.804;24.072;2023-01-29T00:37:35;97715.13;;;0.46;68.29
35878;BME280;21982;49.804;24.072;2023-01-29T00:40:00;97738.63;;;0.80;68.24
35878;BME280;21982;49.804;24.072;2023-01-29T00:42:26;97766.13;;;1.06;67.80
35878;BME280;21982;49.804;24.072;2023-01-29T00:45:10;97781.22;;;1.25;67.22
35878;BME280;21982;49.804;24.072;2023-01-29T00:47:36;97652.03;;;0.08;67.74
35878;BME280;21982;49.804;24.072;2023-01-29T00:50:04;97749.66;;;1.06;67.42
35878;BME280;21982;49.804;24.072;2023-01-29T00:52:30;97726.16;;;0.72;67.74
35878;BME280;21982;49.804;24.072;2023-01-29T00:54:57;97776.59;;;1.17;68.01
35878;BME280;21982;49.804;24.072;2023-01-29T00:57:26;97782.97;;;1.13;67.73
35878;BME280;21982;49.804;24.072;2023-01-29T00:59:53;97775.16;;;1.13;67.74
35878;BME280;21982;49.804;24.072;2023-01-29T01:02:19;97607.28;;;0.03;67.45
35878;BME280;21982;49.804;24.072;2023-01-29T01:05:04;97735.19;;;0.79;67.73
35878;BME280;21982;49.804;24.072;2023-01-29T01:07:32;97610.16;;;-0.01;68.10
35878;BME280;21982;49.804;24.072;2023-01-29T01:09:58;97791.28;;;1.07;67.75
35878;BME280;21982;49.804;24.072;2023-01-29T01:12:42;97719.44;;;0.81;67.34
35878;BME280;21982;49.804;24.072;2023-01-29T01:15:08;97664.66;;;0.47;67.61
35878;BME280;21982;49.804;24.072;2023-01-29T01:17:34;97765.69;;;1.01;67.32
35878;BME280;21982;49.804;24.072;2023-01-29T01:20:00;97686.47;;;0.46;67.95
35878;BME280;21982;49.804;24.072;2023-01-29T01:22:26;97507.78;;;-0.58;67.74
35878;BME280;21982;49.804;24.072;2023-01-29T01:24:51;97791.66;;;1.03;67.57
35878;BME280;21982;49.804;24.072;2023-01-29T01:27:17;97676.59;;;0.39;67.39
35878;BME280;21982;49.804;24.072;2023-01-29T01:29:44;97775.16;;;1.02;67.91
35878;BME280;21982;49.804;24.072;2023-01-29T01:32:10;97587.56;;;0.00;67.44
35878;BME280;21982;49.804;24.072;2023-01-29T01:34:35;97769.00;;;1.14;67.28
35878;BME280;21982;49.804;24.072;2023-01-29T01:37:01;97742.94;;;1.03;67.41
35878;BME280;21982;49.804;24.072;2023-01-29T01:39:26;97768.28;;;1.23;67.31
35878;BME280;21982;49.804;24.072;2023-01-29T01:41:52;97613.50;;;0.35;67.30
35878;BME280;21982;49.804;24.072;2023-01-29T01:47:37;97712.81;;;0.99;66.44
35878;BME280;21982;49.804;24.072;2023-01-29T01:50:19;97687.34;;;0.91;66.59
35878;BME280;21982;49.804;24.072;2023-01-29T01:52:49;97779.44;;;1.37;66.77
35878;BME280;21982;49.804;24.072;2023-01-29T01:55:19;97773.84;;;1.41;66.85
35878;BME280;21982;49.804;24.072;2023-01-29T01:57:49;97718.59;;;1.14;66.31
35878;BME280;21982;49.804;24.072;2023-01-29T02:00:17;97771.81;;;1.45;66.47
35878;BME280;21982;49.804;24.072;2023-01-29T02:02:45;97774.44;;;1.45;66.23
35878;BME280;21982;49.804;24.072;2023-01-29T02:05:33;97768.91;;;1.38;65.96
35878;BME280;21982;49.804;24.072;2023-01-29T02:08:36;97744.81;;;1.12;66.18
35878;BME280;21982;49.804;24.072;2023-01-29T02:11:25;97654.47;;;0.44;66.81
35878;BME280;21982;49.804;24.072;2023-01-29T02:13:51;97693.13;;;0.61;66.22
35878;BME280;21982;49.804;24.072;2023-01-29T02:16:19;97760.81;;;0.96;66.63
35878;BME280;21982;49.804;24.072;2023-01-29T02:18:45;97548.56;;;-0.24;66.92
35878;BME280;21982;49.804;24.072;2023-01-29T02:21:21;97723.00;;;0.91;66.40
35878;BME280;21982;49.804;24.072;2023-01-29T02:26:28;97712.31;;;0.83;67.03
35878;BME280;21982;49.804;24.072;2023-01-29T02:34:47;97766.97;;;1.07;67.11
35878;BME280;21982;49.804;24.072;2023-01-29T02:37:44;97768.50;;;1.09;67.40
35878;BME280;21982;49.804;24.072;2023-01-29T02:40:23;97692.97;;;0.52;66.95
35878;BME280;21982;49.804;24.072;2023-01-29T02:43:12;97770.88;;;1.12;67.36
35878;BME280;21982;49.804;24.072;2023-01-29T02:46:10;97771.63;;;1.03;67.16
35878;BME280;21982;49.804;24.072;2023-01-29T02:51:17;97648.19;;;0.24;67.51
35878;BME280;21982;49.804;24.072;2023-01-29T02:53:51;97769.91;;;0.80;67.53
35878;BME280;21982;49.804;24.072;2023-01-29T02:56:24;97776.94;;;1.02;68.08
35878;BME280;21982;49.804;24.072;2023-01-29T02:59:00;97751.56;;;0.92;67.67
35878;BME280;21982;49.804;24.072;2023-01-29T03:03:58;97770.19;;;0.99;67.92
35878;BME280;21982;49.804;24.072;2023-01-29T03:06:39;97780.38;;;1.02;67.37
35878;BME280;21982;49.804;24.072;2023-01-29T03:09:18;97776.56;;;1.06;67.76
35878;BME280;21982;49.804;24.072;2023-01-29T03:11:48;97694.78;;;0.62;67.70
35878;BME280;21982;49.804;24.072;2023-01-29T03:14:29;97766.13;;;1.06;67.83
35878;BME280;21982;49.804;24.072;2023-01-29T03:17:18;97735.75;;;0.72;68.21
35878;BME280;21982;49.804;24.072;2023-01-29T03:19:45;97739.69;;;0.77;68.28
35878;BME280;21982;49.804;24.072;2023-01-29T03:22:13;97707.56;;;0.54;67.57
35878;BME280;21982;49.804;24.072;2023-01-29T03:24:49;97714.47;;;0.66;67.34
35878;BME280;21982;49.804;24.072;2023-01-29T07:09:13;97198.75;;;-3.95;65.74
35878;BME280;21982;49.804;24.072;2023-01-29T07:11:38;97522.00;;;-1.83;66.62
35878;BME280;21982;49.804;24.072;2023-01-29T07:14:04;97796.50;;;-0.22;67.19
35878;BME280;21982;49.804;24.072;2023-01-29T07:16:29;97798.16;;;-0.21;67.58
35878;BME280;21982;49.804;24.072;2023-01-29T07:18:55;97786.28;;;-0.12;67.36
35878;BME280;21982;49.804;24.072;2023-01-29T07:21:20;97659.88;;;-0.88;67.52
35878;BME280;21982;49.804;24.072;2023-01-29T07:23:46;97622.84;;;-1.15;67.07
35878;BME280;21982;49.804;24.072;2023-01-29T07:26:11;97766.81;;;-0.19;67.33
35878;BME280;21982;49.804;24.072;2023-01-29T07:28:37;97786.44;;;-0.03;67.36
35878;BME280;21982;49.804;24.072;2023-01-29T07:31:04;97792.03;;;0.04;67.75
35878;BME280;21982;49.804;24.072;2023-01-29T07:33:30;97750.78;;;-0.13;67.50
35878;BME280;21982;49.804;24.072;2023-01-29T07:35:55;97799.56;;;0.20;66.93
35878;BME280;21982;49.804;24.072;2023-01-29T07:38:21;97597.09;;;-0.94;67.05
35878;BME280;21982;49.804;24.072;2023-01-29T07:40:46;97796.97;;;0.20;67.02
35878;BME280;21982;49.804;24.072;2023-01-29T07:43:12;97786.31;;;0.23;67.08
35878;BME280;21982;49.804;24.072;2023-01-29T07:45:38;97660.94;;;-0.67;67.30
35878;BME280;21982;49.804;24.072;2023-01-29T07:48:05;97745.97;;;-0.07;66.85
35878;BME280;21982;49.804;24.072;2023-01-29T07:50:33;97785.38;;;0.24;67.14
35878;BME280;21982;49.804;24.072;2023-01-29T07:52:59;97777.56;;;0.24;67.12
35878;BME280;21982;49.804;24.072;2023-01-29T07:55:25;97743.13;;;-0.04;67.14
35878;BME280;21982;49.804;24.072;2023-01-29T07:58:01;97729.63;;;-0.09;66.92
35878;BME280;21982;49.804;24.072;2023-01-29T08:00:29;97625.22;;;-0.76;67.16
35878;BME280;21982;49.804;24.072;2023-01-29T08:03:03;97776.13;;;0.20;66.84
35878;BME280;21982;49.804;24.072;2023-01-29T08:05:29;97664.66;;;-0.58;67.15
35878;BME280;21982;49.804;24.072;2023-01-29T08:07:55;97780.13;;;0.13;67.47
35878;BME280;21982;49.804;24.072;2023-01-29T08:10:20;97783.22;;;0.18;67.07
35878;BME280;21982;49.804;24.072;2023-01-29T08:12:46;97617.56;;;-0.90;66.99
35878;BME280;21982;49.804;24.072;2023-01-29T08:15:11;97798.91;;;0.05;67.31
35878;BME280;21982;49.804;24.072;2023-01-29T08:17:36;97697.72;;;-0.47;66.83
35878;BME280;21982;49.804;24.072;2023-01-29T08:20:06;97788.38;;;-0.17;66.85
35878;BME280;21982;49.804;24.072;2023-01-29T08:22:41;97528.69;;;-1.43;67.02
35878;BME280;21982;49.804;24.072;2023-01-29T08:25:07;97806.72;;;0.29;66.50
35878;BME280;21982;49.804;24.072;2023-01-29T08:27:32;97809.22;;;0.30;66.38
35878;BME280;21982;49.804;24.072;2023-01-29T08:29:58;97793.75;;;0.16;66.48
35878;BME280;21982;49.804;24.072;2023-01-29T08:32:23;97815.88;;;0.35;66.46
35878;BME280;21982;49.804;24.072;2023-01-29T08:34:48;97635.63;;;-0.76;65.93
35878;BME280;21982;49.804;24.072;2023-01-29T08:37:14;97630.66;;;-0.79;66.24
35878;BME280;21982;49.804;24.072;2023-01-29T08:39:39;97688.47;;;-0.51;66.07
35878;BME280;21982;49.804;24.072;2023-01-29T08:42:04;97789.31;;;0.06;65.97
35878;BME280;21982;49.804;24.072;2023-01-29T08:44:30;97732.09;;;-0.31;65.60
35878;BME280;21982;49.804;24.072;2023-01-29T08:46:56;97821.34;;;0.19;65.94
35878;BME280;21982;49.804;24.072;2023-01-29T08:49:21;97602.09;;;-1.28;66.07
35878;BME280;21982;49.804;24.072;2023-01-29T08:51:46;97814.75;;;0.26;65.83
35878;BME280;21982;49.804;24.072;2023-01-29T08:54:12;97817.97;;;0.29;65.43
35878;BME280;21982;49.804;24.072;2023-01-29T08:56:37;97624.44;;;-0.89;65.60
35878;BME280;21982;49.804;24.072;2023-01-29T08:59:03;97819.41;;;0.33;65.42
35878;BME280;21982;49.804;24.072;2023-01-29T09:01:28;97791.97;;;0.17;65.41
35878;BME280;21982;49.804;24.072;2023-01-29T09:03:53;97727.41;;;-0.26;65.40
35878;BME280;21982;49.804;24.072;2023-01-29T09:06:19;97745.47;;;-0.12;65.29
35878;BME280;21982;49.804;24.072;2023-01-29T09:18:59;97815.81;;;-0.01;65.84
35878;BME280;21982;49.804;24.072;2023-01-29T09:21:24;97808.75;;;0.13;65.55
35878;BME280;21982;49.804;24.072;2023-01-29T09:23:49;97811.47;;;0.11;65.48
35878;BME280;21982;49.804;24.072;2023-01-29T09:26:18;97819.28;;;0.11;64.92
35878;BME280;21982;49.804;24.072;2023-01-29T09:28:43;97840.72;;;0.15;65.38
35878;BME280;21982;49.804;24.072;2023-01-29T09:31:08;97814.25;;;0.21;65.03
35878;BME280;21982;49.804;24.072;2023-01-29T09:33:34;97752.44;;;-0.12;64.91
35878;BME280;21982;49.804;24.072;2023-01-29T09:36:01;97611.22;;;-0.86;64.61
35878;BME280;21982;49.804;24.072;2023-01-29T09:38:30;97805.81;;;0.41;64.96
35878;BME280;21982;49.804;24.072;2023-01-29T09:43:54;97570.56;;;-0.87;64.59
35878;BME280;21982;49.804;24.072;2023-01-29T09:46:39;97640.16;;;-0.43;64.18
35878;BME280;21982;49.804;24.072;2023-01-29T09:51:48;97786.78;;;0.17;64.30
35878;BME280;21982;49.804;24.072;2023-01-29T09:56:59;97803.81;;;0.45;64.59
35878;BME280;21982;49.804;24.072;2023-01-29T09:59:26;97778.56;;;0.34;63.73
35878;BME280;21982;49.804;24.072;2023-01-29T10:01:56;97790.94;;;0.54;64.41
35878;BME280;21982;49.804;24.072;2023-01-29T10:23:23;97765.88;;;0.29;62.98
35878;BME280;21982;49.804;24.072;2023-01-29T10:25:54;97767.31;;;0.33;63.22
35878;BME280;21982;49.804;24.072;2023-01-29T10:30:50;97676.22;;;-0.14;63.16
35878;BME280;21982;49.804;24.072;2023-01-29T10:35:57;97642.50;;;-0.16;63.39
35878;BME280;21982;49.804;24.072;2023-01-29T10:41:11;97730.28;;;0.52;62.42
35878;BME280;21982;49.804;24.072;2023-01-29T10:49:40;97662.31;;;-0.02;62.56
35878;BME280;21982;49.804;24.072;2023-01-29T10:55:36;97714.63;;;0.30;62.73
35878;BME280;21982;49.804;24.072;2023-01-29T10:58:11;97710.00;;;0.33;63.22
35878;BME280;21982;49.804;24.072;2023-01-29T11:00:40;97621.56;;;-0.14;63.16
35878;BME280;21982;49.804;24.072;2023-01-29T11:14:14;97733.41;;;0.80;62.44
35878;BME280;21982;49.804;24.072;2023-01-29T11:16:46;97690.16;;;0.88;62.25
35878;BME280;21982;49.804;24.072;2023-01-29T11:19:12;97606.16;;;0.40;62.48
35878;BME280;21982;49.804;24.072;2023-01-29T11:21:55;97592.19;;;0.41;61.90
35878;BME280;21982;49.804;24.072;2023-01-29T11:24:21;97376.50;;;-1.10;62.30
35878;BME280;21982;49.804;24.072;2023-01-29T11:26:48;97693.38;;;1.03;62.56
35878;BME280;21982;49.804;24.072;2023-01-29T11:31:52;97540.34;;;0.16;61.61
35878;BME280;21982;49.804;24.072;2023-01-29T11:34:20;97661.94;;;1.05;61.40
35878;BME280;21982;49.804;24.072;2023-01-29T11:36:59;97669.44;;;0.98;61.21
35878;BME280;21982;49.804;24.072;2023-01-29T11:39:27;97658.41;;;0.94;61.07
35878;BME280;21982;49.804;24.072;2023-01-29T11:42:03;97664.22;;;0.87;61.12
35878;BME280;21982;49.804;24.072;2023-01-29T11:44:41;97655.31;;;0.78;60.43
35878;BME280;21982;49.804;24.072;2023-01-29T11:47:27;97655.91;;;0.71;60.60
35878;BME280;21982;49.804;24.072;2023-01-29T11:49:55;97652.97;;;0.64;60.70
35878;BME280;21982;49.804;24.072;2023-01-29T11:52:23;97589.56;;;0.08;61.08
35878;BME280;21982;49.804;24.072;2023-01-29T11:54:58;97512.94;;;-0.81;61.02
35878;BME280;21982;49.804;24.072;2023-01-29T11:57:36;97607.56;;;0.22;60.91
35878;BME280;21982;49.804;24.072;2023-01-29T12:00:18;97641.91;;;0.38;61.00
35878;BME280;21982;49.804;24.072;2023-01-29T12:02:51;97636.47;;;0.41;60.95
35878;BME280;21982;49.804;24.072;2023-01-29T12:05:21;97636.47;;;0.41;61.05
35878;BME280;21982;49.804;24.072;2023-01-29T12:07:53;97541.91;;;-0.28;60.67
35878;BME280;21982;49.804;24.072;2023-01-29T12:10:39;97620.34;;;0.36;60.81
35878;BME280;21982;49.804;24.072;2023-01-29T12:15:34;97619.41;;;0.26;60.81
35878;BME280;21982;49.804;24.072;2023-01-29T12:21:22;97620.97;;;0.40;60.52
35878;BME280;21982;49.804;24.072;2023-01-29T12:23:38;97615.63;;;0.41;60.99
35878;BME280;21982;49.804;24.072;2023-01-29T12:32:08;97615.66;;;0.30;60.89
35878;BME280;21982;49.804;24.072;2023-01-29T12:34:57;97463.09;;;-0.63;60.36
35878;BME280;21982;49.804;24.072;2023-01-29T12:40:15;97603.78;;;0.26;60.60
35878;BME280;21982;49.804;24.072;2023-01-29T12:42:45;97611.25;;;0.30;60.23
35878;BME280;21982;49.804;24.072;2023-01-29T12:45:17;97574.28;;;0.03;59.98
35878;BME280;21982;49.804;24.072;2023-01-29T12:47:56;97603.44;;;0.19;60.22
35878;BME280;21982;49.804;24.072;2023-01-29T12:50:42;97559.59;;;0.02;60.30
35878;BME280;21982;49.804;24.072;2023-01-29T12:53:31;97594.06;;;0.17;59.89
35878;BME280;21982;49.804;24.072;2023-01-29T12:56:04;97455.47;;;-0.89;59.75
35878;BME280;21982;49.804;24.072;2023-01-29T12:58:41;97604.22;;;-0.03;59.63
35878;BME280;21982;49.804;24.072;2023-01-29T13:01:30;97462.06;;;-0.96;59.74
35878;BME280;21982;49.804;24.072;2023-01-29T13:04:01;97599.25;;;-0.06;60.17
35878;BME280;21982;49.804;24.072;2023-01-29T13:06:33;97512.78;;;-0.55;59.76
35878;BME280;21982;49.804;24.072;2023-01-29T13:09:07;97588.69;;;-0.15;59.63
35878;BME280;21982;49.804;24.072;2023-01-29T13:11:42;97461.81;;;-0.93;59.59
35878;BME280;21982;49.804;24.072;2023-01-29T13:16:46;97515.09;;;-0.63;59.98
35878;BME280;21982;49.804;24.072;2023-01-29T13:19:33;97599.25;;;-0.06;59.64
35878;BME280;21982;49.804;24.072;2023-01-29T13:22:02;97499.50;;;-0.63;59.78
35878;BME280;21982;49.804;24.072;2023-01-29T13:24:38;97596.72;;;-0.18;59.88
35878;BME280;21982;49.804;24.072;2023-01-29T13:27:04;97593.97;;;-0.28;59.80
35878;BME280;21982;49.804;24.072;2023-01-29T13:29:30;97594.78;;;-0.27;60.48
35878;BME280;21982;49.804;24.072;2023-01-29T13:32:01;97595.88;;;-0.19;59.94
35878;BME280;21982;49.804;24.072;2023-01-29T13:35:03;97547.34;;;-0.42;60.02
35878;BME280;21982;49.804;24.072;2023-01-29T13:39:54;97546.75;;;-0.35;60.12
35878;BME280;21982;49.804;24.072;2023-01-29T13:42:23;97600.69;;;-0.02;59.68
35878;BME280;21982;49.804;24.072;2023-01-29T13:44:52;97577.28;;;-0.25;59.81
35878;BME280;21982;49.804;24.072;2023-01-29T13:47:35;97601.59;;;-0.14;59.86
35878;BME280;21982;49.804;24.072;2023-01-29T13:50:06;97597.56;;;-0.18;59.92
35878;BME280;21982;49.804;24.072;2023-01-29T13:52:40;97607.00;;;-0.17;59.71
35878;BME280;21982;49.804;24.072;2023-01-29T13:55:22;97574.56;;;-0.35;59.04
35878;BME280;21982;49.804;24.072;2023-01-29T13:57:54;97568.44;;;-0.58;59.27
35878;BME280;21982;49.804;24.072;2023-01-29T14:13:48;97555.28;;;-0.68;59.57
35878;BME280;21982;49.804;24.072;2023-01-29T14:18:45;97592.50;;;-0.43;59.49
35878;BME280;21982;49.804;24.072;2023-01-29T14:23:49;97594.66;;;-0.37;59.54
35878;BME280;21982;49.804;24.072;2023-01-29T14:26:39;97587.53;;;-0.46;59.75
35878;BME280;21982;49.804;24.072;2023-01-29T14:29:30;97584.31;;;-0.50;59.54
35878;BME280;21982;49.804;24.072;2023-01-29T14:37:34;97583.25;;;-0.47;59.89
35878;BME280;21982;49.804;24.072;2023-01-29T14:40:18;97235.41;;;-2.63;59.61
35878;BME280;21982;49.804;24.072;2023-01-29T14:43:02;97574.34;;;-0.56;60.27
35878;BME280;21982;49.804;24.072;2023-01-29T14:45:37;97574.34;;;-0.56;60.35
35878;BME280;21982;49.804;24.072;2023-01-29T14:53:26;97567.66;;;-0.47;60.29
35878;BME280;21982;49.804;24.072;2023-01-29T14:56:26;97571.69;;;-0.43;59.84
35878;BME280;21982;49.804;24.072;2023-01-29T14:58:57;97546.31;;;-0.63;60.17
35878;BME280;21982;49.804;24.072;2023-01-29T15:01:42;97590.78;;;-0.55;60.01
35878;BME280;21982;49.804;24.072;2023-01-29T15:04:19;97580.63;;;-0.58;60.03
35878;BME280;21982;49.804;24.072;2023-01-29T15:07:02;97590.63;;;-0.65;59.86
35878;BME280;21982;49.804;24.072;2023-01-29T15:09:45;97270.22;;;-3.04;59.75
35878;BME280;21982;49.804;24.072;2023-01-29T19:43:20;97462.44;;;-3.80;66.77
35878;BME280;21982;49.804;24.072;2023-01-29T19:45:46;97365.66;;;-3.90;66.82
35878;BME280;21982;49.804;24.072;2023-01-29T19:48:20;97469.31;;;-2.85;66.85
35878;BME280;21982;49.804;24.072;2023-01-29T19:50:53;97452.81;;;-2.72;66.71
35878;BME280;21982;49.804;24.072;2023-01-29T19:53:20;97496.72;;;-2.18;66.46
35878;BME280;21982;49.804;24.072;2023-01-29T19:55:46;97434.69;;;-2.72;66.26
35878;BME280;21982;49.804;24.072;2023-01-29T19:58:11;97487.75;;;-1.88;66.08
35878;BME280;21982;49.804;24.072;2023-01-29T20:00:36;97496.47;;;-1.77;66.07
35878;BME280;21982;49.804;24.072;2023-01-29T20:03:04;97431.94;;;-2.07;66.24
35878;BME280;21982;49.804;24.072;2023-01-29T20:05:29;97497.75;;;-1.58;66.21
35878;BME280;21982;49.804;24.072;2023-01-29T20:07:55;97489.31;;;-1.49;65.88
35878;BME280;21982;49.804;24.072;2023-01-29T20:10:22;97486.19;;;-1.42;65.88
35878;BME280;21982;49.804;24.072;2023-01-29T20:12:47;97453.91;;;-1.50;65.59
35878;BME280;21982;49.804;24.072;2023-01-29T20:15:13;97433.69;;;-1.58;65.52
35878;BME280;21982;49.804;24.072;2023-01-29T20:17:39;97381.25;;;-1.87;65.59
35878;BME280;21982;49.804;24.072;2023-01-29T20:20:05;97473.25;;;-1.30;65.41
35878;BME280;21982;49.804;24.072;2023-01-29T20:22:31;97419.56;;;-1.66;65.67
35878;BME280;21982;49.804;24.072;2023-01-29T20:24:57;97376.38;;;-1.91;65.48
35878;BME280;21982;49.804;24.072;2023-01-29T20:27:22;97449.94;;;-1.43;65.35
35878;BME280;21982;49.804;24.072;2023-01-29T20:29:50;97410.03;;;-1.66;65.44
35878;BME280;21982;49.804;24.072;2023-01-29T20:32:17;97404.81;;;-1.66;65.13
35878;BME280;21982;49.804;24.072;2023-01-29T20:34:42;97482.53;;;-1.15;65.33
35878;BME280;21982;49.804;24.072;2023-01-29T20:37:11;97401.78;;;-1.60;65.17
35878;BME280;21982;49.804;24.072;2023-01-29T20:39:36;97435.06;;;-1.41;65.14
35878;BME280;21982;49.804;24.072;2023-01-29T20:42:02;97340.91;;;-2.04;65.06
35878;BME280;21982;49.804;24.072;2023-01-29T20:44:27;97436.88;;;-1.30;65.15
35878;BME280;21982;49.804;24.072;2023-01-29T20:46:52;97470.81;;;-1.21;65.11
35878;BME280;21982;49.804;24.072;2023-01-29T20:49:18;97363.03;;;-1.74;65.01
35878;BME280;21982;49.804;24.072;2023-01-29T20:51:44;97442.28;;;-1.33;65.10
35878;BME280;21982;49.804;24.072;2023-01-29T20:54:10;97290.50;;;-2.36;65.56
35878;BME280;21982;49.804;24.072;2023-01-29T20:56:37;97325.31;;;-2.15;65.61
35878;BME280;21982;49.804;24.072;2023-01-29T20:59:07;97422.63;;;-1.49;65.75
35878;BME280;21982;49.804;24.072;2023-01-29T21:01:33;97418.38;;;-1.50;65.88
35878;BME280;21982;49.804;24.072;2023-01-29T21:03:59;97409.16;;;-1.54;66.17
35878;BME280;21982;49.804;24.072;2023-01-29T21:06:25;97350.13;;;-1.99;66.53
35878;BME280;21982;49.804;24.072;2023-01-29T21:08:53;97376.22;;;-1.77;66.16
35878;BME280;21982;49.804;24.072;2023-01-29T21:11:19;97401.06;;;-1.62;66.47
35878;BME280;21982;49.804;24.072;2023-01-29T21:13:45;97050.09;;;-4.02;66.17
35878;BME280;21982;49.804;24.072;2023-01-29T21:16:13;97266.63;;;-2.65;66.30
35878;BME280;21982;49.804;24.072;2023-01-29T21:18:39;97400.69;;;-1.45;66.44
35878;BME280;21982;49.804;24.072;2023-01-29T21:21:04;97362.78;;;-1.71;66.37
35878;BME280;21982;49.804;24.072;2023-01-29T21:23:29;97404.47;;;-1.38;66.11
35878;BME280;21982;49.804;24.072;2023-01-29T21:26:03;97428.38;;;-1.32;65.99
35878;BME280;21982;49.804;24.072;2023-01-29T21:28:28;97287.94;;;-2.12;66.27
35878;BME280;21982;49.804;24.072;2023-01-29T21:31:11;97414.22;;;-1.28;66.08
35878;BME280;21982;49.804;24.072;2023-01-29T21:33:38;97305.16;;;-1.87;66.14
35878;BME280;21982;49.804;24.072;2023-01-29T21:36:04;97395.19;;;-1.29;65.84
35878;BME280;21982;49.804;24.072;2023-01-29T21:38:31;97251.50;;;-2.34;65.89
35878;BME280;21982;49.804;24.072;2023-01-29T21:40:58;97403.81;;;-1.28;66.23
35878;BME280;21982;49.804;24.072;2023-01-29T21:43:24;97386.56;;;-1.41;66.00
35878;BME280;21982;49.804;24.072;2023-01-29T21:45:54;97407.56;;;-1.32;66.17
35878;BME280;21982;49.804;24.072;2023-01-29T21:48:20;97390.19;;;-1.43;66.17
35878;BME280;21982;49.804;24.072;2023-01-29T21:50:45;97393.97;;;-1.47;66.44
35878;BME280;21982;49.804;24.072;2023-01-29T21:53:13;97390.44;;;-1.46;66.35
35878;BME280;21982;49.804;24.072;2023-01-29T21:55:38;97381.97;;;-1.61;66.70
35878;BME280;21982;49.804;24.072;2023-01-29T21:58:04;97234.38;;;-2.37;66.60
35878;BME280;21982;49.804;24.072;2023-01-29T22:00:29;97315.44;;;-1.86;66.28
35878;BME280;21982;49.804;24.072;2023-01-29T22:02:55;97372.63;;;-1.40;66.49
35878;BME280;21982;49.804;24.072;2023-01-29T22:05:20;97280.81;;;-1.97;66.51
35878;BME280;21982;49.804;24.072;2023-01-29T22:07:49;97338.75;;;-1.62;66.28
35878;BME280;21982;49.804;24.072;2023-01-29T22:10:15;97257.03;;;-2.15;66.38
35878;BME280;21982;49.804;24.072;2023-01-29T22:12:41;97328.47;;;-1.75;66.54
35878;BME280;21982;49.804;24.072;2023-01-29T22:15:08;97371.19;;;-1.44;66.65
35878;BME280;21982;49.804;24.072;2023-01-29T22:17:34;97373.78;;;-1.44;66.89
35878;BME280;21982;49.804;24.072;2023-01-29T22:19:59;97364.78;;;-1.51;66.71
35878;BME280;21982;49.804;24.072;2023-01-29T22:22:25;97376.34;;;-1.55;66.72
35878;BME280;21982;49.804;24.072;2023-01-29T22:24:50;97361.59;;;-1.54;66.97
35878;BME280;21982;49.804;24.072;2023-01-29T22:27:16;97358.38;;;-1.58;67.04
35878;BME280;21982;49.804;24.072;2023-01-29T22:29:42;97352.56;;;-1.61;67.40
35878;BME280;21982;49.804;24.072;2023-01-29T22:34:43;97150.31;;;-2.93;67.12
35878;BME280;21982;49.804;24.072;2023-01-29T22:37:08;97168.41;;;-2.81;67.59
35878;BME280;21982;49.804;24.072;2023-01-29T22:39:34;97287.66;;;-1.96;67.60
35878;BME280;21982;49.804;24.072;2023-01-29T22:41:59;97156.22;;;-2.67;67.50
35878;BME280;21982;49.804;24.072;2023-01-29T22:44:24;97305.34;;;-1.66;67.39
35878;BME280;21982;49.804;24.072;2023-01-29T22:46:50;97327.38;;;-1.48;67.39
35878;BME280;21982;49.804;24.072;2023-01-29T22:49:15;97320.75;;;-1.52;67.49
35878;BME280;21982;49.804;24.072;2023-01-29T22:51:42;97140.50;;;-2.77;67.42
35878;BME280;21982;49.804;24.072;2023-01-29T22:54:07;97182.44;;;-2.59;67.86
35878;BME280;21982;49.804;24.072;2023-01-29T22:56:32;97350.19;;;-1.64;68.02
35878;BME280;21982;49.804;24.072;2023-01-29T22:58:59;97218.50;;;-2.32;68.27
35878;BME280;21982;49.804;24.072;2023-01-29T23:01:27;97171.22;;;-2.60;68.29
35878;BME280;21982;49.804;24.072;2023-01-29T23:03:53;97321.97;;;-1.69;68.61
35878;BME280;21982;49.804;24.072;2023-01-29T23:06:18;97320.31;;;-1.70;68.58
35878;BME280;21982;49.804;24.072;2023-01-29T23:08:46;97323.97;;;-1.73;68.72
35878;BME280;21982;49.804;24.072;2023-01-29T23:11:14;97341.09;;;-1.70;68.67
35878;BME280;21982;49.804;24.072;2023-01-29T23:13:42;97288.47;;;-1.96;68.50
35878;BME280;21982;49.804;24.072;2023-01-29T23:16:08;97316.06;;;-1.71;68.84
35878;BME280;21982;49.804;24.072;2023-01-29T23:18:34;97286.75;;;-1.84;69.13
35878;BME280;21982;49.804;24.072;2023-01-29T23:21:00;97309.00;;;-1.69;69.17
35878;BME280;21982;49.804;24.072;2023-01-29T23:23:27;97214.84;;;-2.30;69.16
35878;BME280;21982;49.804;24.072;2023-01-29T23:26:01;97312.75;;;-1.73;69.43
35878;BME280;21982;49.804;24.072;2023-01-29T23:28:45;97316.53;;;-1.77;69.61
35878;BME280;21982;49.804;24.072;2023-01-29T23:31:11;97206.19;;;-2.42;69.48
35878;BME280;21982;49.804;24.072;2023-01-29T23:33:37;97313.22;;;-1.79;70.00
35878;BME280;21982;49.804;24.072;2023-01-29T23:36:03;97254.47;;;-2.04;69.84
35878;BME280;21982;49.804;24.072;2023-01-29T23:38:28;97117.97;;;-2.88;70.10